createdAt,value
2023-08-06T00:01:48.382Z,6.60
2023-08-06T00:04:16.606Z,5.80
2023-08-06T00:06:44.658Z,7.00
2023-08-06T00:09:12.697Z,5.90
2023-08-06T00:11:42.392Z,6.70
2023-08-06T00:14:10.632Z,6.10
2023-08-06T00:16:38.756Z,6.00
2023-08-06T00:19:07.330Z,6.90
2023-08-06T00:21:35.354Z,6.70
2023-08-06T00:24:03.277Z,6.10
2023-08-06T00:26:31.288Z,6.40
2023-08-06T00:28:59.433Z,5.90
2023-08-06T00:31:27.835Z,6.00
2023-08-06T00:33:55.917Z,6.00
2023-08-06T00:36:23.977Z,5.70
2023-08-06T00:38:51.975Z,6.00
2023-08-06T00:41:19.990Z,5.90
2023-08-06T00:43:48.103Z,5.80
2023-08-06T00:46:16.356Z,6.60
2023-08-06T00:48:44.765Z,6.10
2023-08-06T00:51:12.767Z,6.50
2023-08-06T00:53:41.262Z,6.10
2023-08-06T00:56:10.318Z,6.60
2023-08-06T00:58:38.734Z,5.90
2023-08-06T01:01:06.795Z,6.50
2023-08-06T01:03:34.910Z,5.50
2023-08-06T01:06:03.020Z,6.20
2023-08-06T01:08:37.039Z,6.20
2023-08-06T01:11:14.302Z,5.80
2023-08-06T01:13:50.853Z,6.00
2023-08-06T01:16:22.053Z,6.00
2023-08-06T01:18:52.761Z,5.60
2023-08-06T01:21:21.321Z,5.70
2023-08-06T01:23:49.445Z,6.20
2023-08-06T01:26:25.888Z,6.00
2023-08-06T01:28:53.806Z,5.60
2023-08-06T01:31:48.288Z,5.90
2023-08-06T01:34:18.875Z,6.40
2023-08-06T01:36:47.211Z,6.30
2023-08-06T01:39:15.198Z,6.00
2023-08-06T01:41:43.467Z,5.90
2023-08-06T01:44:11.633Z,6.00
2023-08-06T01:46:39.532Z,5.90
2023-08-06T01:49:09.057Z,6.30
2023-08-06T01:51:37.008Z,5.80
2023-08-06T01:54:04.970Z,7.00
2023-08-06T01:56:33.095Z,5.70
2023-08-06T01:59:04.027Z,5.60
2023-08-06T02:01:33.248Z,6.60
2023-08-06T02:04:01.214Z,6.10
2023-08-06T02:06:29.168Z,6.10
2023-08-06T02:08:57.229Z,5.90
2023-08-06T02:11:25.261Z,6.40
2023-08-06T02:13:53.166Z,6.00
2023-08-06T02:16:21.231Z,6.90
2023-08-06T02:18:49.222Z,7.10
2023-08-06T02:21:17.232Z,6.60
2023-08-06T02:23:45.158Z,7.40
2023-08-06T02:26:13.047Z,6.30
2023-08-06T02:28:41.040Z,6.20
2023-08-06T02:31:09.020Z,6.70
2023-08-06T02:33:38.501Z,7.30
2023-08-06T02:36:06.466Z,7.50
2023-08-06T02:38:34.584Z,7.00
2023-08-06T02:41:05.864Z,6.80
2023-08-06T02:43:34.031Z,6.00
2023-08-06T02:46:02.821Z,6.30
2023-08-06T02:48:30.855Z,6.00
2023-08-06T02:51:00.520Z,6.50
2023-08-06T02:53:29.157Z,7.20
2023-08-06T02:55:57.308Z,6.90
2023-08-06T02:58:30.604Z,7.00
2023-08-06T03:01:08.671Z,6.40
2023-08-06T03:03:57.029Z,6.80
2023-08-06T03:06:29.998Z,7.10
2023-08-06T03:08:59.208Z,6.60
2023-08-06T03:11:27.547Z,6.90
2023-08-06T03:13:59.028Z,7.00
2023-08-06T03:16:27.158Z,6.30
2023-08-06T03:18:55.706Z,6.20
2023-08-06T03:21:23.736Z,6.20
2023-08-06T03:23:51.852Z,6.40
2023-08-06T03:26:22.139Z,6.30
2023-08-06T03:28:50.142Z,7.10
2023-08-06T03:31:18.300Z,6.80
2023-08-06T03:33:46.961Z,6.50
2023-08-06T03:36:17.472Z,6.30
2023-08-06T03:38:45.584Z,6.80
2023-08-06T03:41:14.877Z,6.30
2023-08-06T03:43:42.976Z,7.50
2023-08-06T03:46:14.207Z,7.30
2023-08-06T03:48:42.195Z,7.20
2023-08-06T03:51:10.250Z,6.90
2023-08-06T03:53:39.447Z,7.10
2023-08-06T03:56:07.798Z,7.20
2023-08-06T03:58:35.897Z,7.10
2023-08-06T04:01:05.058Z,7.20
2023-08-06T04:03:40.988Z,8.00
2023-08-06T04:06:09.300Z,7.30
2023-08-06T04:08:38.034Z,7.70
2023-08-06T04:11:05.987Z,8.80
2023-08-06T04:13:33.877Z,8.50
2023-08-06T04:16:02.622Z,8.80
2023-08-06T04:18:30.765Z,9.70
2023-08-06T04:20:58.855Z,8.50
2023-08-06T04:23:27.091Z,9.20
2023-08-06T04:25:57.852Z,8.20
2023-08-06T04:28:26.765Z,9.20
2023-08-06T04:30:55.320Z,9.40
2023-08-06T04:33:24.158Z,8.20
2023-08-06T04:35:59.171Z,8.10
2023-08-06T04:38:28.306Z,8.50
2023-08-06T04:40:56.722Z,8.40
2023-08-06T04:43:25.590Z,8.60
2023-08-06T04:45:55.637Z,9.30
2023-08-06T04:48:24.208Z,7.50
2023-08-06T04:50:52.343Z,9.10
2023-08-06T04:53:20.243Z,8.70
2023-08-06T04:55:48.453Z,8.30
2023-08-06T04:58:16.459Z,8.90
2023-08-06T05:00:44.483Z,7.90
2023-08-06T05:03:12.477Z,9.20
2023-08-06T05:05:43.960Z,8.30
2023-08-06T05:08:16.106Z,9.20
2023-08-06T05:10:45.311Z,8.70
2023-08-06T05:13:13.727Z,9.00
2023-08-06T05:15:43.953Z,8.10
2023-08-06T05:18:12.930Z,9.10
2023-08-06T05:20:41.888Z,9.20
2023-08-06T05:23:10.003Z,8.90
2023-08-06T05:25:38.484Z,8.70
2023-08-06T05:28:06.556Z,9.20
2023-08-06T05:30:34.468Z,9.30
2023-08-06T05:33:02.441Z,8.10
2023-08-06T05:35:30.480Z,9.80
2023-08-06T05:37:58.630Z,8.80
2023-08-06T05:40:26.646Z,8.40
2023-08-06T05:42:55.304Z,8.70
2023-08-06T05:45:23.216Z,9.10
2023-08-06T05:47:51.232Z,7.90
2023-08-06T05:50:19.245Z,8.50
2023-08-06T05:52:47.104Z,10.10
2023-08-06T05:55:15.192Z,8.70
2023-08-06T05:57:43.100Z,8.80
2023-08-06T06:00:11.489Z,8.10
2023-08-06T06:02:42.474Z,8.40
2023-08-06T06:05:10.627Z,8.50
2023-08-06T06:07:38.814Z,7.70
2023-08-06T06:10:07.142Z,8.20
2023-08-06T06:12:35.072Z,8.30
2023-08-06T06:15:03.258Z,8.50
2023-08-06T06:17:31.385Z,8.50
2023-08-06T06:19:59.507Z,8.10
2023-08-06T06:22:27.512Z,8.60
2023-08-06T06:24:55.418Z,7.00
2023-08-06T06:27:23.482Z,7.60
2023-08-06T06:29:52.976Z,7.60
2023-08-06T06:32:21.008Z,7.90
2023-08-06T06:34:48.981Z,8.40
2023-08-06T06:37:17.010Z,7.00
2023-08-06T06:39:45.803Z,6.60
2023-08-06T06:42:13.789Z,7.30
2023-08-06T06:44:43.976Z,7.60
2023-08-06T06:47:11.966Z,7.30
2023-08-06T06:49:40.082Z,7.90
2023-08-06T06:52:08.088Z,7.30
2023-08-06T06:54:36.132Z,6.60
2023-08-06T06:57:04.224Z,7.50
2023-08-06T06:59:32.193Z,7.00
2023-08-06T07:02:00.125Z,7.60
2023-08-06T07:04:28.170Z,6.80
2023-08-06T07:06:56.104Z,6.70
2023-08-06T07:09:24.143Z,7.30
2023-08-06T07:11:53.594Z,6.50
2023-08-06T07:14:21.800Z,6.70
2023-08-06T07:16:49.743Z,6.80
2023-08-06T07:19:17.809Z,6.10
2023-08-06T07:21:45.728Z,7.20
2023-08-06T07:24:13.631Z,6.70
2023-08-06T07:26:41.682Z,6.90
2023-08-06T07:29:09.641Z,6.60
2023-08-06T07:31:37.778Z,6.20
2023-08-06T07:34:05.748Z,7.20
2023-08-06T07:36:33.816Z,6.60
2023-08-06T07:39:01.806Z,6.80
2023-08-06T07:41:30.087Z,6.50
2023-08-06T07:43:58.191Z,6.60
2023-08-06T07:46:26.253Z,6.30
2023-08-06T07:48:54.264Z,7.40
2023-08-06T07:51:22.307Z,6.40
2023-08-06T07:53:50.212Z,5.90
2023-08-06T07:56:19.045Z,5.70
2023-08-06T07:58:46.994Z,6.20
2023-08-06T08:01:14.987Z,6.60
2023-08-06T08:03:42.992Z,7.00
2023-08-06T08:06:10.985Z,6.30
2023-08-06T08:08:39.990Z,6.10
2023-08-06T08:11:08.109Z,6.00
2023-08-06T08:13:36.038Z,6.60
2023-08-06T08:16:04.289Z,6.90
2023-08-06T08:18:32.809Z,7.50
2023-08-06T08:21:00.856Z,7.00
2023-08-06T08:23:28.949Z,6.00
2023-08-06T08:25:56.959Z,5.70
2023-08-06T08:28:24.950Z,6.30
2023-08-06T08:30:52.907Z,6.20
2023-08-06T08:33:21.729Z,6.30
2023-08-06T08:35:49.716Z,7.50
2023-08-06T08:38:17.728Z,7.70
2023-08-06T08:40:48.661Z,7.70
2023-08-06T08:43:17.012Z,6.50
2023-08-06T08:45:48.492Z,6.70
2023-08-06T08:48:17.258Z,6.20
2023-08-06T08:50:46.220Z,6.20
2023-08-06T08:53:15.350Z,5.90
2023-08-06T08:55:44.162Z,6.20
2023-08-06T08:58:12.271Z,5.90
2023-08-06T09:00:42.040Z,5.60
2023-08-06T09:03:09.968Z,6.10
2023-08-06T09:05:41.137Z,6.50
2023-08-06T09:08:11.653Z,6.30
2023-08-06T09:10:40.572Z,6.20
2023-08-06T09:13:09.929Z,6.30
2023-08-06T09:15:38.111Z,5.10
2023-08-06T09:18:12.905Z,7.10
2023-08-06T09:20:41.350Z,6.70
2023-08-06T09:23:10.575Z,6.90
2023-08-06T09:25:42.211Z,6.10
2023-08-06T09:30:38.476Z,6.30
2023-08-06T09:33:15.388Z,6.00
2023-08-06T09:35:43.358Z,6.70
2023-08-06T09:38:12.005Z,6.30
2023-08-06T09:40:40.985Z,7.10
2023-08-06T09:43:09.025Z,6.50
2023-08-06T09:45:38.423Z,6.40
2023-08-06T09:48:07.235Z,5.80
2023-08-06T09:50:37.837Z,6.40
2023-08-06T09:53:07.396Z,7.10
2023-08-06T09:55:35.987Z,6.20
2023-08-06T09:58:04.721Z,6.30
2023-08-06T10:00:36.796Z,6.30
2023-08-06T10:03:07.994Z,6.40
2023-08-06T10:05:37.300Z,6.40
2023-08-06T10:08:06.809Z,7.30
2023-08-06T10:10:35.590Z,6.80
2023-08-06T10:13:04.770Z,7.40
2023-08-06T10:15:33.752Z,7.80
2023-08-06T10:18:02.980Z,6.10
2023-08-06T10:20:34.956Z,6.70
2023-08-06T10:23:02.937Z,8.00
2023-08-06T10:25:41.039Z,6.20
2023-08-06T10:28:10.653Z,7.00
2023-08-06T10:30:45.317Z,6.80
2023-08-06T10:33:13.409Z,7.50
2023-08-06T10:35:45.883Z,6.40
2023-08-06T10:38:15.535Z,6.40
2023-08-06T10:40:49.823Z,6.70
2023-08-06T10:43:31.303Z,8.30
2023-08-06T10:48:30.501Z,6.90
2023-08-06T10:50:58.443Z,6.80
2023-08-06T10:53:26.429Z,6.80
2023-08-06T10:55:54.361Z,7.20
2023-08-06T10:58:22.399Z,6.60
2023-08-06T11:00:50.605Z,6.70
2023-08-06T11:03:18.973Z,6.40
2023-08-06T11:05:50.797Z,6.30
2023-08-06T11:08:28.355Z,6.60
2023-08-06T11:11:03.495Z,5.70
2023-08-06T11:13:33.638Z,6.30
2023-08-06T11:16:01.562Z,6.30
2023-08-06T11:18:29.518Z,6.10
2023-08-06T11:20:59.646Z,7.70
2023-08-06T11:23:30.857Z,7.40
2023-08-06T11:25:58.987Z,6.20
2023-08-06T11:28:26.996Z,7.60
2023-08-06T11:30:58.201Z,7.00
2023-08-06T11:33:29.269Z,7.30
2023-08-06T11:35:57.983Z,7.80
2023-08-06T11:38:29.970Z,7.30
2023-08-06T11:40:58.234Z,6.20
2023-08-06T11:43:26.571Z,7.30
2023-08-06T11:45:56.767Z,6.80
2023-08-06T11:48:24.867Z,7.40
2023-08-06T11:50:55.650Z,6.50
2023-08-06T11:53:28.504Z,7.10
2023-08-06T11:55:56.428Z,7.20
2023-08-06T11:58:24.339Z,7.00
2023-08-06T12:00:52.695Z,7.40
2023-08-06T12:03:21.558Z,7.30
2023-08-06T12:05:49.478Z,7.50
2023-08-06T12:08:17.345Z,7.70
2023-08-06T12:10:45.670Z,7.40
2023-08-06T12:13:14.227Z,7.40
2023-08-06T12:15:42.268Z,7.30
2023-08-06T12:18:10.224Z,6.20
2023-08-06T12:20:39.740Z,7.80
2023-08-06T12:23:07.691Z,7.00
2023-08-06T12:25:35.845Z,7.20
2023-08-06T12:28:03.941Z,7.40
2023-08-06T12:30:31.884Z,7.80
2023-08-06T12:32:59.955Z,7.70
2023-08-06T12:35:28.170Z,7.20
2023-08-06T12:37:58.582Z,7.20
2023-08-06T12:40:36.672Z,7.60
2023-08-06T12:43:05.865Z,7.00
2023-08-06T12:45:33.880Z,6.50
2023-08-06T12:48:01.865Z,7.00
2023-08-06T12:50:30.360Z,9.00
2023-08-06T12:52:58.267Z,10.10
2023-08-06T12:55:26.225Z,8.30
2023-08-06T12:57:58.762Z,8.40
2023-08-06T13:00:27.430Z,7.80
2023-08-06T13:02:55.769Z,6.90
2023-08-06T13:05:23.891Z,7.30
2023-08-06T13:07:51.969Z,7.40
2023-08-06T13:10:20.871Z,7.90
2023-08-06T13:12:49.075Z,7.90
2023-08-06T13:15:18.156Z,8.80
2023-08-06T13:17:46.973Z,7.20
2023-08-06T13:20:16.752Z,7.50
2023-08-06T13:22:47.577Z,6.90
2023-08-06T13:25:17.077Z,6.90
2023-08-06T13:27:47.073Z,6.80
2023-08-06T13:30:15.260Z,7.00
2023-08-06T13:32:43.190Z,11.20
2023-08-06T13:35:11.510Z,7.10
2023-08-06T13:37:39.535Z,9.50
2023-08-06T13:40:08.255Z,10.00
2023-08-06T13:42:36.328Z,7.70
2023-08-06T13:45:05.117Z,6.30
2023-08-06T13:47:33.300Z,7.50
2023-08-06T13:50:01.333Z,14.00
2023-08-06T13:52:29.330Z,8.60
2023-08-06T13:54:57.188Z,6.60
2023-08-06T13:57:25.166Z,6.60
2023-08-06T13:59:53.069Z,6.50
2023-08-06T14:02:21.234Z,5.80
2023-08-06T14:04:49.480Z,6.00
2023-08-06T14:07:17.389Z,5.80
2023-08-06T14:09:45.449Z,6.70
2023-08-06T14:12:13.358Z,6.00
2023-08-06T14:14:41.740Z,6.90
2023-08-06T14:17:09.611Z,6.30
2023-08-06T14:19:37.594Z,6.00
2023-08-06T14:22:05.567Z,6.80
2023-08-06T14:24:33.629Z,6.40
2023-08-06T14:27:01.543Z,7.80
2023-08-06T14:29:29.567Z,6.70
2023-08-06T14:31:57.580Z,6.30
2023-08-06T14:34:25.526Z,7.20
2023-08-06T14:36:53.982Z,7.60
2023-08-06T14:39:22.253Z,6.80
2023-08-06T14:41:50.143Z,4.80
2023-08-06T14:44:18.143Z,3.70
2023-08-06T14:46:47.031Z,3.50
2023-08-06T14:49:15.587Z,4.00
2023-08-06T14:51:43.537Z,3.60
2023-08-06T14:54:11.439Z,3.80
2023-08-06T14:56:39.492Z,3.60
2023-08-06T14:59:07.511Z,3.50
2023-08-06T15:01:35.502Z,3.20
2023-08-06T15:04:03.594Z,3.80
2023-08-06T15:06:31.735Z,2.60
2023-08-06T15:09:02.031Z,2.80
2023-08-06T15:11:30.173Z,2.40
2023-08-06T15:13:58.098Z,2.50
2023-08-06T15:16:26.064Z,2.10
2023-08-06T15:18:54.072Z,2.20
2023-08-06T15:21:22.903Z,1.90
2023-08-06T15:23:50.949Z,1.90
2023-08-06T15:26:18.861Z,1.60
2023-08-06T15:28:46.892Z,2.00
2023-08-06T15:31:14.901Z,2.10
2023-08-06T15:33:42.861Z,2.30
2023-08-06T15:36:10.862Z,1.60
2023-08-06T15:38:38.887Z,1.70
2023-08-06T15:41:06.868Z,1.30
2023-08-06T15:43:35.658Z,1.30
2023-08-06T15:46:03.593Z,1.10
2023-08-06T15:48:31.623Z,1.60
2023-08-06T15:50:59.938Z,1.80
2023-08-06T15:53:27.972Z,1.60
2023-08-06T15:55:55.948Z,2.10
2023-08-06T15:58:23.843Z,2.00
2023-08-06T16:00:51.752Z,2.00
2023-08-06T16:03:19.763Z,2.50
2023-08-06T16:05:47.836Z,2.30
2023-08-06T16:08:16.209Z,2.10
2023-08-06T16:10:45.904Z,2.60
2023-08-06T16:13:13.899Z,2.50
2023-08-06T16:15:41.957Z,2.30
2023-08-06T16:18:09.918Z,2.70
2023-08-06T16:20:42.025Z,2.50
2023-08-06T16:23:10.409Z,2.20
2023-08-06T16:25:39.316Z,2.60
2023-08-06T16:28:07.277Z,2.70
2023-08-06T16:30:35.157Z,2.60
2023-08-06T16:33:03.822Z,2.60
2023-08-06T16:35:31.931Z,3.00
2023-08-06T16:38:00.192Z,3.10
2023-08-06T16:40:28.319Z,2.40
2023-08-06T16:42:56.311Z,2.90
2023-08-06T16:45:24.184Z,2.80
2023-08-06T16:47:52.233Z,3.00
2023-08-06T16:50:21.178Z,2.80
2023-08-06T16:52:49.029Z,3.20
2023-08-06T16:55:19.064Z,3.80
2023-08-06T16:57:47.243Z,2.90
2023-08-06T17:00:15.213Z,3.10
2023-08-06T17:02:43.207Z,2.90
2023-08-06T17:05:11.690Z,3.00
2023-08-06T17:07:39.639Z,3.40
2023-08-06T17:10:07.858Z,3.20
2023-08-06T17:12:35.844Z,3.20
2023-08-06T17:15:04.013Z,3.00
2023-08-06T17:17:32.016Z,3.60
2023-08-06T17:19:59.906Z,2.80
2023-08-06T17:22:27.900Z,3.80
2023-08-06T17:24:55.867Z,3.60
2023-08-06T17:27:24.778Z,3.50
2023-08-06T17:29:52.944Z,3.60
2023-08-06T17:32:20.773Z,3.90
2023-08-06T17:34:48.735Z,3.90
2023-08-06T17:37:16.808Z,3.50
2023-08-06T17:39:44.823Z,3.90
2023-08-06T17:42:12.858Z,3.80
2023-08-06T17:44:41.371Z,3.60
2023-08-06T17:47:15.322Z,4.00
2023-08-06T17:49:48.489Z,3.60
2023-08-06T17:52:16.530Z,3.90
2023-08-06T17:54:44.443Z,3.60
2023-08-06T17:57:12.393Z,3.70
2023-08-06T17:59:40.440Z,3.60
2023-08-06T18:02:08.438Z,3.60
2023-08-06T18:04:36.363Z,4.00
2023-08-06T18:07:04.622Z,3.60
2023-08-06T18:09:32.558Z,3.40
2023-08-06T18:12:00.463Z,4.00
2023-08-06T18:14:28.386Z,3.40
2023-08-06T18:16:56.534Z,3.90
2023-08-06T18:19:24.768Z,3.40
2023-08-06T18:21:52.806Z,3.70
2023-08-06T18:24:20.793Z,3.60
2023-08-06T18:26:48.861Z,3.50
2023-08-06T18:29:16.839Z,3.80
2023-08-06T18:31:44.688Z,3.80
2023-08-06T18:34:12.616Z,3.60
2023-08-06T18:36:40.528Z,3.80
2023-08-06T18:39:08.654Z,3.90
2023-08-06T18:41:36.711Z,3.90
2023-08-06T18:44:04.767Z,4.00
2023-08-06T18:46:32.800Z,4.20
2023-08-06T18:49:00.777Z,3.70
2023-08-06T18:51:28.798Z,4.10
2023-08-06T18:53:56.800Z,4.50
2023-08-06T18:56:24.803Z,4.10
2023-08-06T18:58:52.867Z,4.20
2023-08-06T19:01:20.918Z,3.70
2023-08-06T19:03:49.463Z,4.00
2023-08-06T19:06:17.576Z,4.60
2023-08-06T19:08:45.796Z,3.90
2023-08-06T19:11:13.781Z,3.60
2023-08-06T19:13:41.694Z,4.10
2023-08-06T19:16:09.714Z,3.90
2023-08-06T19:18:37.789Z,3.50
2023-08-06T19:21:05.730Z,4.40
2023-08-06T19:23:33.833Z,4.10
2023-08-06T19:26:03.356Z,3.60
2023-08-06T19:28:31.383Z,4.10
2023-08-06T19:30:59.871Z,4.50
2023-08-06T19:33:27.828Z,3.40
2023-08-06T19:35:55.764Z,3.50
2023-08-06T19:38:25.114Z,3.80
2023-08-06T19:41:02.576Z,4.50
2023-08-06T19:43:30.667Z,4.50
2023-08-06T19:45:59.803Z,3.60
2023-08-06T19:48:27.727Z,4.50
2023-08-06T19:51:01.655Z,4.30
2023-08-06T19:53:32.957Z,4.60
2023-08-06T19:56:05.142Z,4.70
2023-08-06T19:58:33.593Z,3.80
2023-08-06T20:01:02.371Z,4.70
2023-08-06T20:03:33.320Z,4.60
2023-08-06T20:06:03.080Z,4.80
2023-08-06T20:08:32.794Z,4.10
2023-08-06T20:11:01.122Z,4.20
2023-08-06T20:13:29.200Z,3.80
2023-08-06T20:15:57.266Z,4.00
2023-08-06T20:18:27.566Z,4.50
2023-08-06T20:20:55.847Z,4.10
2023-08-06T20:23:27.503Z,3.70
2023-08-06T20:25:55.907Z,4.40
2023-08-06T20:28:24.452Z,3.90
2023-08-06T20:30:52.488Z,3.90
2023-08-06T20:33:20.381Z,3.60
2023-08-06T20:35:48.274Z,3.40
2023-08-06T20:38:16.469Z,3.50
2023-08-06T20:40:44.661Z,3.90
2023-08-06T20:43:16.403Z,3.40
2023-08-06T20:45:44.383Z,3.00
2023-08-06T20:48:12.313Z,3.60
2023-08-06T20:50:40.594Z,3.60
2023-08-06T20:53:08.554Z,3.70
2023-08-06T20:55:36.395Z,3.90
2023-08-06T20:58:04.397Z,3.30
2023-08-06T21:00:32.528Z,3.90
2023-08-06T21:03:00.566Z,4.00
2023-08-06T21:05:30.447Z,4.30
2023-08-06T21:07:58.342Z,3.80
2023-08-06T21:10:26.372Z,3.20
2023-08-06T21:12:54.284Z,3.50
2023-08-06T21:15:22.314Z,3.50
2023-08-06T21:17:50.406Z,3.70
2023-08-06T21:20:18.778Z,4.00
2023-08-06T21:22:46.759Z,3.90
2023-08-06T21:25:14.695Z,3.50
2023-08-06T21:27:48.724Z,3.70
2023-08-06T21:30:16.744Z,3.70
2023-08-06T21:32:44.779Z,3.50
2023-08-06T21:35:13.014Z,4.00
2023-08-06T21:37:41.057Z,3.60
2023-08-06T21:40:09.206Z,5.40
2023-08-06T21:42:37.231Z,3.70
2023-08-06T21:45:05.749Z,4.10
2023-08-06T21:47:33.740Z,3.20
2023-08-06T21:50:01.696Z,3.90
2023-08-06T21:52:29.730Z,4.40
2023-08-06T21:54:57.597Z,3.60
2023-08-06T21:57:25.518Z,3.70
2023-08-06T21:59:53.358Z,3.90
2023-08-06T22:02:21.402Z,3.30
2023-08-06T22:04:49.390Z,3.70
2023-08-06T22:07:17.547Z,3.20
2023-08-06T22:09:45.744Z,3.60
2023-08-06T22:12:13.907Z,3.50
2023-08-06T22:14:41.902Z,3.40
2023-08-06T22:17:09.933Z,3.70
2023-08-06T22:19:38.104Z,3.60
2023-08-06T22:22:06.203Z,3.90
2023-08-06T22:24:34.248Z,3.90
2023-08-06T22:27:03.408Z,3.80
2023-08-06T22:29:31.433Z,3.80
2023-08-06T22:32:00.833Z,4.00
2023-08-06T22:34:28.756Z,3.40
2023-08-06T22:36:56.872Z,3.70
2023-08-06T22:39:24.910Z,3.70
2023-08-06T22:41:53.472Z,4.30
2023-08-06T22:44:21.677Z,3.70
2023-08-06T22:46:49.674Z,4.00
2023-08-06T22:49:17.636Z,4.60
2023-08-06T22:51:45.520Z,3.70
2023-08-06T22:54:13.708Z,4.20
2023-08-06T22:56:41.698Z,4.90
2023-08-06T22:59:09.806Z,4.20
2023-08-06T23:01:37.952Z,3.70
2023-08-06T23:04:06.158Z,4.50
2023-08-06T23:06:34.195Z,4.20
2023-08-06T23:09:02.265Z,4.00
2023-08-06T23:11:30.570Z,4.00
2023-08-06T23:13:58.479Z,3.80
2023-08-06T23:16:26.578Z,4.00
2023-08-06T23:18:54.593Z,4.10
2023-08-06T23:21:24.432Z,3.90
2023-08-06T23:23:52.485Z,3.80
2023-08-06T23:26:20.594Z,3.80
2023-08-06T23:28:50.138Z,3.70
2023-08-06T23:31:18.178Z,3.90
2023-08-06T23:33:46.701Z,4.50
2023-08-06T23:36:14.599Z,4.20
2023-08-06T23:38:42.595Z,3.60
2023-08-06T23:41:10.546Z,3.70
2023-08-06T23:43:38.580Z,4.20
2023-08-06T23:46:06.771Z,4.10
2023-08-06T23:48:35.020Z,3.90
2023-08-06T23:51:02.881Z,3.60
2023-08-06T23:53:30.940Z,3.80
2023-08-06T23:55:58.953Z,3.60
2023-08-06T23:58:26.815Z,3.90
